Time,TemperatureF,DewpointF,PressureIn,WindDirection,WindDirectionDegrees,WindSpeedMPH,WindSpeedGustMPH,Humidity,HourlyPrecipIn,Conditions,Clouds,dailyrainin,SolarRadiationWatts/m^2,SoftwareType,DateUTC
2013-07-08 00:02:00,66.0,65.0,-100.00,ESE,107,3.0,5.0,95,0.00,,,0.08,0.000000,,2013-07-08 04:02:00,
2013-07-08 00:33:00,68.0,62.0,-100.00,NW,315,3.0,7.0,81,0.00,,,0.08,0.000000,,2013-07-08 04:33:00,
2013-07-08 00:42:00,68.0,62.0,-100.00,NW,315,3.0,7.0,81,0.00,,,0.08,0.000000,,2013-07-08 04:42:00,
2013-07-08 00:53:00,68.0,62.0,-100.00,NW,315,3.0,7.0,81,0.00,,,0.08,0.000000,,2013-07-08 04:53:00,
2013-07-08 01:01:00,68.0,62.0,-100.00,NW,315,3.0,7.0,81,0.00,,,0.08,0.000000,,2013-07-08 05:01:00,
2013-07-08 01:34:00,65.0,64.0,-100.00,ENE,70,2.0,4.0,95,0.00,,,0.08,0.000000,,2013-07-08 05:34:00,
2013-07-08 01:43:00,65.0,64.0,-100.00,ENE,70,2.0,4.0,95,0.00,,,0.08,0.000000,,2013-07-08 05:43:00,
2013-07-08 01:53:00,65.0,64.0,-100.00,ENE,70,2.0,4.0,95,0.00,,,0.08,0.000000,,2013-07-08 05:53:00,
2013-07-08 02:01:00,65.0,64.0,-100.00,ENE,70,2.0,4.0,95,0.00,,,0.08,0.000000,,2013-07-08 06:01:00,
2013-07-08 02:34:00,66.0,65.0,-100.00,NNE,30,2.0,6.0,96,0.00,,,0.06,0.000000,,2013-07-08 06:34:00,
2013-07-08 02:43:00,66.0,65.0,-100.00,NNE,30,2.0,6.0,96,0.00,,,0.06,0.000000,,2013-07-08 06:43:00,
2013-07-08 02:53:00,66.0,65.0,-100.00,NNE,30,2.0,6.0,96,0.00,,,0.06,0.000000,,2013-07-08 06:53:00,
2013-07-08 03:02:00,66.0,65.0,-100.00,NNE,30,2.0,6.0,96,0.00,,,0.06,0.000000,,2013-07-08 07:02:00,
2013-07-08 03:34:00,65.0,65.0,-100.00,NE,35,1.0,5.0,100,0.00,,,0.06,0.000000,,2013-07-08 07:34:00,
2013-07-08 03:44:00,65.0,65.0,-100.00,NE,35,1.0,5.0,100,0.00,,,0.06,0.000000,,2013-07-08 07:44:00,
2013-07-08 03:53:00,65.0,65.0,-100.00,NE,35,1.0,5.0,100,0.00,,,0.06,0.000000,,2013-07-08 07:53:00,
2013-07-08 04:02:00,65.0,65.0,-100.00,NE,35,1.0,5.0,100,0.00,,,0.06,0.000000,,2013-07-08 08:02:00,
2013-07-08 04:34:00,64.0,64.0,-100.00,SSE,148,2.0,4.0,100,0.00,,,0.06,0.000000,,2013-07-08 08:34:00,
2013-07-08 04:42:00,64.0,64.0,-100.00,SSE,148,2.0,4.0,100,0.00,,,0.06,0.000000,,2013-07-08 08:42:00,
2013-07-08 04:53:00,64.0,64.0,-100.00,SSE,148,2.0,4.0,100,0.00,,,0.06,0.000000,,2013-07-08 08:53:00,
2013-07-08 05:02:00,64.0,64.0,-100.00,SSE,148,2.0,4.0,100,0.00,,,0.06,0.000000,,2013-07-08 09:02:00,
2013-07-08 05:34:00,64.0,64.0,-100.00,SSE,150,3.0,5.0,100,0.00,,,0.06,0.000000,,2013-07-08 09:34:00,
2013-07-08 05:43:00,64.0,64.0,-100.00,SSE,150,3.0,5.0,100,0.00,,,0.06,0.000000,,2013-07-08 09:43:00,
2013-07-08 05:53:00,64.0,64.0,-100.00,SSE,150,3.0,5.0,100,0.00,,,0.06,0.000000,,2013-07-08 09:53:00,
2013-07-08 06:02:00,64.0,64.0,-100.00,SSE,150,3.0,5.0,100,0.00,,,0.06,0.000000,,2013-07-08 10:02:00,
2013-07-08 06:34:00,64.0,64.0,-100.00,ENE,57,3.0,6.0,100,0.00,,,0.06,0.000000,,2013-07-08 10:34:00,
2013-07-08 06:43:00,64.0,64.0,-100.00,ENE,57,3.0,6.0,100,0.00,,,0.06,0.000000,,2013-07-08 10:43:00,
2013-07-08 06:53:00,64.0,64.0,-100.00,ENE,57,3.0,6.0,100,0.00,,,0.06,0.000000,,2013-07-08 10:53:00,
2013-07-08 07:02:00,64.0,64.0,-100.00,ENE,57,3.0,6.0,100,0.00,,,0.06,0.000000,,2013-07-08 11:02:00,
2013-07-08 07:33:00,64.0,64.0,-100.00,ENE,60,2.0,4.0,100,0.00,,,0.06,13.000000,,2013-07-08 11:33:00,
2013-07-08 07:43:00,64.0,64.0,-100.00,ENE,60,2.0,4.0,100,0.00,,,0.06,13.000000,,2013-07-08 11:43:00,
2013-07-08 07:53:00,64.0,64.0,-100.00,ENE,60,2.0,4.0,100,0.00,,,0.06,13.000000,,2013-07-08 11:53:00,
2013-07-08 08:01:00,64.0,64.0,-100.00,ENE,60,2.0,4.0,100,0.00,,,0.06,13.000000,,2013-07-08 12:01:00,
2013-07-08 08:34:00,66.0,66.0,-100.00,North,353,4.0,7.0,100,0.00,,,0.05,70.000000,,2013-07-08 12:34:00,
2013-07-08 08:43:00,66.0,66.0,-100.00,North,353,4.0,7.0,100,0.00,,,0.05,70.000000,,2013-07-08 12:43:00,
2013-07-08 08:53:00,66.0,66.0,-100.00,North,353,4.0,7.0,100,0.00,,,0.05,70.000000,,2013-07-08 12:53:00,
2013-07-08 09:02:00,66.0,66.0,-100.00,North,353,4.0,7.0,100,0.00,,,0.05,70.000000,,2013-07-08 13:02:00,
2013-07-08 09:43:00,69.0,68.0,-100.00,North,353,4.0,8.0,95,0.00,,,0.02,257.000000,,2013-07-08 13:43:00,
2013-07-08 09:53:00,69.0,68.0,-100.00,North,353,4.0,8.0,95,0.00,,,0.02,257.000000,,2013-07-08 13:53:00,
2013-07-08 10:02:00,69.0,68.0,-100.00,North,353,4.0,8.0,95,0.00,,,0.02,257.000000,,2013-07-08 14:02:00,
2013-07-08 10:43:00,71.0,69.0,-100.00,NNE,13,3.0,9.0,93,0.00,,,0.01,368.000000,,2013-07-08 14:43:00,
2013-07-08 10:53:00,71.0,69.0,-100.00,NNE,13,3.0,9.0,93,0.00,,,0.01,368.000000,,2013-07-08 14:53:00,
2013-07-08 11:02:00,71.0,69.0,-100.00,NNE,13,3.0,9.0,93,0.00,,,0.01,368.000000,,2013-07-08 15:02:00,
2013-07-08 11:43:00,73.0,67.0,-100.00,North,351,3.0,6.0,81,0.00,,,0.01,569.000000,,2013-07-08 15:43:00,
2013-07-08 11:53:00,73.0,67.0,-100.00,North,351,3.0,6.0,81,0.00,,,0.01,569.000000,,2013-07-08 15:53:00,
2013-07-08 12:01:00,73.0,67.0,-100.00,North,351,3.0,6.0,81,0.00,,,0.01,569.000000,,2013-07-08 16:01:00,
2013-07-08 12:06:00,76.0,67.0,-100.00,North,358,3.0,6.0,73,0.00,,,0.01,752.000000,,2013-07-08 16:06:00,
2013-07-08 12:43:00,76.0,67.0,-100.00,North,358,3.0,6.0,73,0.00,,,0.01,752.000000,,2013-07-08 16:43:00,
2013-07-08 12:58:00,76.0,67.0,-100.00,North,358,3.0,6.0,73,0.00,,,0.01,752.000000,,2013-07-08 16:58:00,
2013-07-08 13:06:00,78.0,68.0,-100.00,West,273,3.0,6.0,72,0.00,,,0.00,932.000000,,2013-07-08 17:06:00,
2013-07-08 13:48:00,78.0,68.0,-100.00,West,273,3.0,6.0,72,0.00,,,0.00,932.000000,,2013-07-08 17:48:00,
2013-07-08 13:55:00,78.0,68.0,-100.00,West,273,3.0,6.0,72,0.00,,,0.00,932.000000,,2013-07-08 17:55:00,
2013-07-08 14:06:00,78.0,66.0,-100.00,South,177,1.0,9.0,67,0.00,,,0.00,678.000000,,2013-07-08 18:06:00,
2013-07-08 14:56:00,78.0,66.0,-100.00,South,177,1.0,9.0,67,0.00,,,0.00,678.000000,,2013-07-08 18:56:00,
2013-07-08 15:42:00,81.0,72.0,-100.00,South,175,4.0,9.0,73,0.00,,,0.00,1082.000000,,2013-07-08 19:42:00,
2013-07-08 15:58:00,81.0,72.0,-100.00,South,175,4.0,9.0,73,0.00,,,0.00,1082.000000,,2013-07-08 19:58:00,
2013-07-08 16:06:00,76.0,69.0,-100.00,South,180,3.0,9.0,79,0.00,,,0.00,724.000000,,2013-07-08 20:06:00,
2013-07-08 16:49:00,76.0,69.0,-100.00,South,180,3.0,9.0,79,0.00,,,0.00,724.000000,,2013-07-08 20:49:00,
2013-07-08 16:56:00,76.0,69.0,-100.00,South,180,3.0,9.0,79,0.00,,,0.00,724.000000,,2013-07-08 20:56:00,
2013-07-08 17:06:00,74.0,71.0,-100.00,SSE,159,2.0,6.0,90,0.02,,,0.02,329.000000,,2013-07-08 21:06:00,
2013-07-08 17:58:00,74.0,71.0,-100.00,SSE,159,2.0,6.0,90,0.02,,,0.02,329.000000,,2013-07-08 21:58:00,
2013-07-08 18:06:00,77.0,72.0,-100.00,South,189,4.0,9.0,86,0.00,,,0.02,593.000000,,2013-07-08 22:06:00,
2013-07-08 18:49:00,77.0,72.0,-100.00,South,189,4.0,9.0,86,0.00,,,0.02,593.000000,,2013-07-08 22:49:00,
2013-07-08 19:00:00,77.0,72.0,-100.00,South,189,4.0,9.0,86,0.00,,,0.02,593.000000,,2013-07-08 23:00:00,
2013-07-08 19:06:00,73.0,69.0,-100.00,SSE,159,3.0,7.0,86,0.00,,,0.02,275.000000,,2013-07-08 23:06:00,
2013-07-08 19:50:00,73.0,69.0,-100.00,SSE,159,3.0,7.0,86,0.00,,,0.02,275.000000,,2013-07-08 23:50:00,
2013-07-08 20:06:00,71.0,69.0,-100.00,SSE,165,4.0,9.0,95,0.00,,,0.02,139.000000,,2013-07-09 00:06:00,
2013-07-08 20:45:00,71.0,69.0,-100.00,SSE,165,4.0,9.0,95,0.00,,,0.02,139.000000,,2013-07-09 00:45:00,
2013-07-08 20:59:00,71.0,69.0,-100.00,SSE,165,4.0,9.0,95,0.00,,,0.02,139.000000,,2013-07-09 00:59:00,
2013-07-08 21:06:00,68.0,67.0,-100.00,SSE,157,3.0,8.0,96,0.00,,,0.02,44.000000,,2013-07-09 01:06:00,
2013-07-08 21:47:00,68.0,67.0,-100.00,SSE,157,3.0,8.0,96,0.00,,,0.02,44.000000,,2013-07-09 01:47:00,
2013-07-08 22:01:00,68.0,67.0,-100.00,SSE,157,3.0,8.0,96,0.00,,,0.02,44.000000,,2013-07-09 02:01:00,
2013-07-08 22:06:00,68.0,68.0,-100.00,SSE,157,3.0,7.0,100,0.00,,,0.02,0.000000,,2013-07-09 02:06:00,
2013-07-08 22:50:00,68.0,68.0,-100.00,SSE,157,3.0,7.0,100,0.00,,,0.02,0.000000,,2013-07-09 02:50:00,
2013-07-08 23:01:00,68.0,68.0,-100.00,SSE,157,3.0,7.0,100,0.00,,,0.02,0.000000,,2013-07-09 03:01:00,